DAL7892 KBNA-KMEM
Flight info
| Callsign | DAL7892 |
|---|---|
| Flight time | 0h 45m |
| Altitude | 24000 |
| Route | DANLS4 DANLS SPKER BLUZZ5 |
| Aircraft | B738/M-SDE2E3FGHIRWXY/LB1 |
Departure
| Time | 2026-05-08 03:11 |
|---|---|
| Airport | Nashville International Airport (KBNA) |
Arrival
| Time | 2026-05-08 03:57 |
|---|---|
| Airport | Memphis International Airport (KMEM) |
| Time | Latitude | Longitude | Altitude | Speed | Heading |
|---|---|---|---|---|---|
| 2026-05-08 02:41 | 36.13305 | -86.67158 | 568 ft | 0 kts | 192° |
| 2026-05-08 02:54 | 36.13308 | -86.67157 | 574 ft | 2 kts | 191° |
| 2026-05-08 02:54 | 36.13327 | -86.67153 | 572 ft | 3 kts | 186° |
| 2026-05-08 02:54 | 36.13347 | -86.67151 | 576 ft | 3 kts | 184° |
| 2026-05-08 02:55 | 36.13367 | -86.67148 | 570 ft | 3 kts | 205° |
| 2026-05-08 02:55 | 36.13376 | -86.67143 | 572 ft | 1 kts | 287° |
| 2026-05-08 02:57 | 36.13381 | -86.67163 | 570 ft | 7 kts | 287° |
| 2026-05-08 02:57 | 36.13399 | -86.67233 | 569 ft | 9 kts | 287° |
| 2026-05-08 02:57 | 36.13418 | -86.67307 | 568 ft | 9 kts | 287° |
| 2026-05-08 02:58 | 36.13438 | -86.67385 | 567 ft | 10 kts | 288° |
| 2026-05-08 02:58 | 36.13459 | -86.67467 | 567 ft | 10 kts | 287° |
| 2026-05-08 02:58 | 36.13480 | -86.67549 | 568 ft | 10 kts | 287° |
| 2026-05-08 02:58 | 36.13501 | -86.67630 | 568 ft | 10 kts | 288° |
| 2026-05-08 02:59 | 36.13521 | -86.67708 | 568 ft | 9 kts | 288° |
| 2026-05-08 02:59 | 36.13527 | -86.67732 | 567 ft | 1 kts | 287° |
| 2026-05-08 02:59 | 36.13522 | -86.67764 | 566 ft | 5 kts | 236° |
| 2026-05-08 02:59 | 36.13494 | -86.67785 | 567 ft | 5 kts | 199° |
| 2026-05-08 03:00 | 36.13462 | -86.67798 | 573 ft | 5 kts | 199° |
| 2026-05-08 03:00 | 36.13420 | -86.67816 | 569 ft | 8 kts | 199° |
| 2026-05-08 03:00 | 36.13353 | -86.67844 | 570 ft | 12 kts | 199° |
| 2026-05-08 03:00 | 36.13273 | -86.67872 | 573 ft | 12 kts | 198° |
| 2026-05-08 03:01 | 36.13196 | -86.67904 | 574 ft | 12 kts | 198° |
| 2026-05-08 03:01 | 36.13120 | -86.67933 | 567 ft | 11 kts | 196° |
| 2026-05-08 03:01 | 36.13047 | -86.67960 | 573 ft | 11 kts | 196° |
| 2026-05-08 03:01 | 36.12975 | -86.67986 | 576 ft | 11 kts | 198° |
| 2026-05-08 03:02 | 36.12907 | -86.68017 | 574 ft | 10 kts | 198° |
| 2026-05-08 03:02 | 36.12841 | -86.68044 | 576 ft | 10 kts | 198° |
| 2026-05-08 03:02 | 36.12776 | -86.68068 | 579 ft | 10 kts | 196° |
| 2026-05-08 03:02 | 36.12712 | -86.68091 | 578 ft | 10 kts | 196° |
| 2026-05-08 03:03 | 36.12644 | -86.68114 | 575 ft | 11 kts | 196° |
| 2026-05-08 03:03 | 36.12573 | -86.68139 | 574 ft | 10 kts | 196° |
| 2026-05-08 03:03 | 36.12504 | -86.68164 | 574 ft | 10 kts | 196° |
| 2026-05-08 03:03 | 36.12430 | -86.68191 | 575 ft | 12 kts | 196° |
| 2026-05-08 03:04 | 36.12343 | -86.68223 | 573 ft | 14 kts | 196° |
| 2026-05-08 03:04 | 36.12252 | -86.68255 | 579 ft | 13 kts | 196° |
| 2026-05-08 03:04 | 36.12165 | -86.68287 | 579 ft | 13 kts | 196° |
| 2026-05-08 03:04 | 36.12072 | -86.68320 | 580 ft | 14 kts | 198° |
| 2026-05-08 03:05 | 36.11978 | -86.68351 | 583 ft | 14 kts | 195° |
| 2026-05-08 03:05 | 36.11888 | -86.68385 | 588 ft | 13 kts | 197° |
| 2026-05-08 03:05 | 36.11801 | -86.68419 | 592 ft | 13 kts | 197° |
| 2026-05-08 03:05 | 36.11733 | -86.68443 | 593 ft | 6 kts | 193° |
| 2026-05-08 03:06 | 36.11689 | -86.68457 | 593 ft | 5 kts | 206° |
| 2026-05-08 03:06 | 36.11689 | -86.68482 | 597 ft | 3 kts | 307° |
| 2026-05-08 03:06 | 36.11702 | -86.68503 | 600 ft | 3 kts | 307° |
| 2026-05-08 03:06 | 36.11717 | -86.68521 | 601 ft | 3 kts | 325° |
| 2026-05-08 03:07 | 36.11735 | -86.68535 | 603 ft | 3 kts | 327° |
| 2026-05-08 03:10 | 36.11738 | -86.68537 | 603 ft | 3 kts | 322° |
| 2026-05-08 03:10 | 36.11769 | -86.68600 | 617 ft | 8 kts | 299° |
| 2026-05-08 03:10 | 36.11816 | -86.68628 | 602 ft | 9 kts | 11° |
| 2026-05-08 03:11 | 36.11971 | -86.68569 | 598 ft | 56 kts | 17° |
| 2026-05-08 03:11 | 36.12602 | -86.68321 | 580 ft | 130 kts | 17° |
| 2026-05-08 03:11 | 36.13656 | -86.67926 | 683 ft | 178 kts | 17° |
| 2026-05-08 03:11 | 36.14790 | -86.67522 | 1809 ft | 160 kts | 15° |
| 2026-05-08 03:12 | 36.15840 | -86.67173 | 2687 ft | 165 kts | 7° |
| 2026-05-08 03:12 | 36.17077 | -86.67443 | 3041 ft | 199 kts | 342° |
| 2026-05-08 03:12 | 36.18495 | -86.67964 | 3290 ft | 225 kts | 345° |
| 2026-05-08 03:12 | 36.20043 | -86.68501 | 3803 ft | 235 kts | 345° |
| 2026-05-08 03:13 | 36.21640 | -86.69061 | 4419 ft | 241 kts | 344° |
| 2026-05-08 03:13 | 36.23258 | -86.69633 | 5103 ft | 243 kts | 343° |
| 2026-05-08 03:13 | 36.24889 | -86.70211 | 5793 ft | 244 kts | 343° |
| 2026-05-08 03:13 | 36.26521 | -86.70917 | 6306 ft | 257 kts | 329° |
| 2026-05-08 03:14 | 36.27814 | -86.72469 | 6866 ft | 265 kts | 303° |
| 2026-05-08 03:14 | 36.28501 | -86.74575 | 6956 ft | 266 kts | 280° |
| 2026-05-08 03:14 | 36.28456 | -86.76865 | 6980 ft | 269 kts | 262° |
| 2026-05-08 03:14 | 36.28090 | -86.79147 | 6973 ft | 270 kts | 260° |
| 2026-05-08 03:15 | 36.27712 | -86.81423 | 6964 ft | 269 kts | 260° |
| 2026-05-08 03:15 | 36.27337 | -86.83693 | 6983 ft | 268 kts | 259° |
| 2026-05-08 03:15 | 36.26649 | -86.85862 | 7050 ft | 276 kts | 243° |
| 2026-05-08 03:15 | 36.25670 | -86.87928 | 7817 ft | 277 kts | 242° |
| 2026-05-08 03:16 | 36.24699 | -86.89963 | 8926 ft | 273 kts | 243° |
| 2026-05-08 03:16 | 36.23738 | -86.91999 | 9902 ft | 275 kts | 243° |
| 2026-05-08 03:16 | 36.22766 | -86.94079 | 10549 ft | 287 kts | 244° |
| 2026-05-08 03:16 | 36.21728 | -86.96323 | 10741 ft | 313 kts | 244° |
| 2026-05-08 03:17 | 36.20605 | -86.98755 | 10938 ft | 337 kts | 244° |
| 2026-05-08 03:17 | 36.19456 | -87.01241 | 11375 ft | 350 kts | 244° |
| 2026-05-08 03:17 | 36.18240 | -87.03865 | 12170 ft | 351 kts | 244° |
| 2026-05-08 03:17 | 36.17029 | -87.06475 | 13089 ft | 349 kts | 244° |
| 2026-05-08 03:18 | 36.15824 | -87.09075 | 13989 ft | 347 kts | 244° |
| 2026-05-08 03:18 | 36.14628 | -87.11661 | 14742 ft | 348 kts | 245° |
| 2026-05-08 03:18 | 36.13422 | -87.14269 | 15388 ft | 351 kts | 245° |
| 2026-05-08 03:18 | 36.12204 | -87.16904 | 16005 ft | 355 kts | 245° |
| 2026-05-08 03:19 | 36.10973 | -87.19560 | 16657 ft | 357 kts | 245° |
| 2026-05-08 03:19 | 36.09820 | -87.22279 | 17284 ft | 356 kts | 252° |
| 2026-05-08 03:19 | 36.09170 | -87.25224 | 17891 ft | 356 kts | 259° |
| 2026-05-08 03:19 | 36.08597 | -87.28219 | 18489 ft | 359 kts | 259° |
| 2026-05-08 03:20 | 36.08013 | -87.31228 | 19024 ft | 361 kts | 259° |
| 2026-05-08 03:20 | 36.07419 | -87.34248 | 19555 ft | 363 kts | 259° |
| 2026-05-08 03:20 | 36.06814 | -87.37294 | 20058 ft | 366 kts | 259° |
| 2026-05-08 03:20 | 36.06200 | -87.40359 | 20595 ft | 368 kts | 259° |
| 2026-05-08 03:21 | 36.05580 | -87.43438 | 21151 ft | 370 kts | 259° |
| 2026-05-08 03:21 | 36.04955 | -87.46531 | 21672 ft | 372 kts | 259° |
| 2026-05-08 03:21 | 36.04324 | -87.49643 | 22172 ft | 374 kts | 259° |
| 2026-05-08 03:21 | 36.03690 | -87.52767 | 22656 ft | 376 kts | 259° |
| 2026-05-08 03:22 | 36.03050 | -87.55914 | 23143 ft | 378 kts | 259° |
| 2026-05-08 03:22 | 36.02409 | -87.59060 | 23733 ft | 377 kts | 259° |
| 2026-05-08 03:22 | 36.01770 | -87.62193 | 24048 ft | 375 kts | 259° |
| 2026-05-08 03:22 | 36.01134 | -87.65299 | 24066 ft | 372 kts | 259° |
| 2026-05-08 03:23 | 36.00501 | -87.68393 | 24083 ft | 372 kts | 259° |
| 2026-05-08 03:23 | 35.99868 | -87.71486 | 24080 ft | 372 kts | 259° |
| 2026-05-08 03:23 | 35.99232 | -87.74591 | 24089 ft | 373 kts | 259° |
| 2026-05-08 03:23 | 35.98595 | -87.77694 | 24094 ft | 373 kts | 259° |
| 2026-05-08 03:24 | 35.97956 | -87.80801 | 24089 ft | 373 kts | 259° |
| 2026-05-08 03:24 | 35.97316 | -87.83909 | 24091 ft | 374 kts | 259° |
| 2026-05-08 03:24 | 35.96684 | -87.86976 | 24089 ft | 374 kts | 258° |
| 2026-05-08 03:24 | 35.96034 | -87.90122 | 24087 ft | 374 kts | 258° |
| 2026-05-08 03:25 | 35.95399 | -87.93190 | 24096 ft | 373 kts | 258° |
| 2026-05-08 03:25 | 35.94756 | -87.96296 | 24088 ft | 373 kts | 258° |
| 2026-05-08 03:25 | 35.94114 | -87.99393 | 24089 ft | 373 kts | 258° |
| 2026-05-08 03:25 | 35.93492 | -88.02384 | 24087 ft | 373 kts | 258° |
| 2026-05-08 03:26 | 35.92848 | -88.05483 | 24093 ft | 372 kts | 258° |
| 2026-05-08 03:26 | 35.92204 | -88.08577 | 24092 ft | 372 kts | 258° |
| 2026-05-08 03:26 | 35.91560 | -88.11666 | 24084 ft | 372 kts | 258° |
| 2026-05-08 03:26 | 35.90914 | -88.14758 | 24088 ft | 372 kts | 258° |
| 2026-05-08 03:27 | 35.90268 | -88.17851 | 24089 ft | 372 kts | 258° |
| 2026-05-08 03:27 | 35.89621 | -88.20946 | 24088 ft | 372 kts | 258° |
| 2026-05-08 03:27 | 35.89191 | -88.22997 | 24089 ft | 372 kts | 258° |
| 2026-05-08 03:27 | 35.88543 | -88.26083 | 24090 ft | 372 kts | 258° |
| 2026-05-08 03:28 | 35.87913 | -88.29181 | 24093 ft | 372 kts | 259° |
| 2026-05-08 03:28 | 35.87323 | -88.32293 | 24092 ft | 372 kts | 260° |
| 2026-05-08 03:28 | 35.86746 | -88.35406 | 24087 ft | 372 kts | 260° |
| 2026-05-08 03:28 | 35.86171 | -88.38517 | 24089 ft | 372 kts | 260° |
| 2026-05-08 03:29 | 35.85593 | -88.41628 | 24094 ft | 372 kts | 260° |
| 2026-05-08 03:29 | 35.85012 | -88.44742 | 24089 ft | 372 kts | 260° |
| 2026-05-08 03:29 | 35.84429 | -88.47848 | 24085 ft | 372 kts | 260° |
| 2026-05-08 03:29 | 35.83842 | -88.50957 | 24086 ft | 373 kts | 260° |
| 2026-05-08 03:30 | 35.82665 | -88.57177 | 24091 ft | 373 kts | 259° |
| 2026-05-08 03:30 | 35.81484 | -88.63394 | 24084 ft | 373 kts | 259° |
| 2026-05-08 03:31 | 35.80298 | -88.69617 | 24082 ft | 373 kts | 259° |
| 2026-05-08 03:31 | 35.79110 | -88.75831 | 24081 ft | 373 kts | 259° |
| 2026-05-08 03:32 | 35.78515 | -88.78937 | 24080 ft | 372 kts | 259° |
| 2026-05-08 03:32 | 35.77919 | -88.82041 | 24083 ft | 372 kts | 259° |
| 2026-05-08 03:32 | 35.77323 | -88.85145 | 24080 ft | 372 kts | 259° |
| 2026-05-08 03:32 | 35.76726 | -88.88244 | 24070 ft | 370 kts | 259° |
| 2026-05-08 03:33 | 35.76143 | -88.91261 | 24065 ft | 354 kts | 259° |
| 2026-05-08 03:33 | 35.75582 | -88.94161 | 23851 ft | 346 kts | 259° |
| 2026-05-08 03:33 | 35.75035 | -88.97001 | 23523 ft | 338 kts | 259° |
| 2026-05-08 03:33 | 35.74492 | -88.99811 | 23051 ft | 334 kts | 259° |
| 2026-05-08 03:34 | 35.73975 | -89.02479 | 22583 ft | 331 kts | 259° |
| 2026-05-08 03:34 | 35.73413 | -89.05212 | 22105 ft | 329 kts | 255° |
| 2026-05-08 03:34 | 35.72404 | -89.07753 | 21642 ft | 333 kts | 241° |
| 2026-05-08 03:34 | 35.70943 | -89.09942 | 21186 ft | 336 kts | 233° |
| 2026-05-08 03:35 | 35.69326 | -89.12013 | 20727 ft | 335 kts | 232° |
| 2026-05-08 03:35 | 35.67695 | -89.14057 | 20274 ft | 333 kts | 232° |
| 2026-05-08 03:35 | 35.64420 | -89.18211 | 19368 ft | 330 kts | 232° |
| 2026-05-08 03:36 | 35.62840 | -89.20242 | 18932 ft | 328 kts | 232° |
| 2026-05-08 03:36 | 35.61276 | -89.22254 | 18714 ft | 320 kts | 232° |
| 2026-05-08 03:36 | 35.59747 | -89.24220 | 18417 ft | 317 kts | 232° |
| 2026-05-08 03:36 | 35.58216 | -89.26190 | 17965 ft | 319 kts | 232° |
| 2026-05-08 03:37 | 35.56672 | -89.28174 | 17542 ft | 325 kts | 232° |
| 2026-05-08 03:37 | 35.55097 | -89.30197 | 17043 ft | 329 kts | 232° |
| 2026-05-08 03:37 | 35.53515 | -89.32222 | 16602 ft | 328 kts | 232° |
| 2026-05-08 03:37 | 35.51941 | -89.34233 | 16165 ft | 325 kts | 232° |
| 2026-05-08 03:38 | 35.50382 | -89.36227 | 15812 ft | 321 kts | 232° |
| 2026-05-08 03:38 | 35.48843 | -89.38196 | 15491 ft | 318 kts | 232° |
| 2026-05-08 03:38 | 35.47316 | -89.40152 | 15192 ft | 317 kts | 232° |
| 2026-05-08 03:38 | 35.45797 | -89.42098 | 14892 ft | 316 kts | 232° |
| 2026-05-08 03:39 | 35.44273 | -89.44050 | 14598 ft | 318 kts | 232° |
| 2026-05-08 03:39 | 35.42734 | -89.46023 | 14291 ft | 322 kts | 232° |
| 2026-05-08 03:39 | 35.41186 | -89.48001 | 13979 ft | 320 kts | 231° |
| 2026-05-08 03:39 | 35.39649 | -89.49965 | 13642 ft | 319 kts | 231° |
| 2026-05-08 03:40 | 35.38114 | -89.51923 | 13308 ft | 317 kts | 231° |
| 2026-05-08 03:40 | 35.36611 | -89.53843 | 12995 ft | 316 kts | 231° |
| 2026-05-08 03:40 | 35.35093 | -89.55779 | 12683 ft | 315 kts | 231° |
| 2026-05-08 03:40 | 35.33575 | -89.57713 | 12377 ft | 314 kts | 231° |
| 2026-05-08 03:41 | 35.32061 | -89.59642 | 12078 ft | 314 kts | 231° |
| 2026-05-08 03:41 | 35.30553 | -89.61561 | 11768 ft | 310 kts | 231° |
| 2026-05-08 03:41 | 35.29065 | -89.63452 | 11472 ft | 305 kts | 231° |
| 2026-05-08 03:41 | 35.27603 | -89.65309 | 11174 ft | 301 kts | 231° |
| 2026-05-08 03:42 | 35.26166 | -89.67134 | 10874 ft | 292 kts | 231° |
| 2026-05-08 03:42 | 35.24780 | -89.68890 | 10596 ft | 282 kts | 231° |
| 2026-05-08 03:42 | 35.23433 | -89.70601 | 10318 ft | 276 kts | 231° |
| 2026-05-08 03:42 | 35.22108 | -89.72285 | 10075 ft | 273 kts | 231° |
| 2026-05-08 03:43 | 35.20795 | -89.73954 | 9794 ft | 271 kts | 231° |
| 2026-05-08 03:43 | 35.19492 | -89.75607 | 9516 ft | 269 kts | 231° |
| 2026-05-08 03:43 | 35.18201 | -89.77242 | 9248 ft | 266 kts | 231° |
| 2026-05-08 03:43 | 35.16916 | -89.78869 | 8995 ft | 265 kts | 231° |
| 2026-05-08 03:44 | 35.15646 | -89.80477 | 8778 ft | 261 kts | 231° |
| 2026-05-08 03:44 | 35.14394 | -89.82061 | 8568 ft | 258 kts | 231° |
| 2026-05-08 03:44 | 35.13155 | -89.83626 | 8362 ft | 254 kts | 231° |
| 2026-05-08 03:44 | 35.11937 | -89.85164 | 8159 ft | 250 kts | 230° |
| 2026-05-08 03:45 | 35.10511 | -89.86368 | 7996 ft | 254 kts | 202° |
| 2026-05-08 03:45 | 35.08763 | -89.86689 | 7712 ft | 256 kts | 185° |
| 2026-05-08 03:45 | 35.06995 | -89.86663 | 7438 ft | 252 kts | 182° |
| 2026-05-08 03:45 | 35.05249 | -89.86609 | 7057 ft | 253 kts | 182° |
| 2026-05-08 03:46 | 35.03499 | -89.86566 | 6755 ft | 251 kts | 182° |
| 2026-05-08 03:46 | 35.01763 | -89.86530 | 6477 ft | 247 kts | 182° |
| 2026-05-08 03:46 | 35.00060 | -89.86501 | 6209 ft | 242 kts | 182° |
| 2026-05-08 03:46 | 34.98398 | -89.86477 | 5951 ft | 237 kts | 181° |
| 2026-05-08 03:47 | 34.96763 | -89.86455 | 5716 ft | 233 kts | 181° |
| 2026-05-08 03:47 | 34.95143 | -89.86434 | 5498 ft | 232 kts | 181° |
| 2026-05-08 03:47 | 34.93541 | -89.86414 | 5288 ft | 234 kts | 180° |
| 2026-05-08 03:47 | 34.91904 | -89.86393 | 5061 ft | 236 kts | 180° |
| 2026-05-08 03:48 | 34.90264 | -89.86373 | 4823 ft | 235 kts | 180° |
| 2026-05-08 03:48 | 34.88630 | -89.86352 | 4581 ft | 234 kts | 180° |
| 2026-05-08 03:48 | 34.87005 | -89.86331 | 4340 ft | 233 kts | 180° |
| 2026-05-08 03:48 | 34.85391 | -89.86311 | 4110 ft | 231 kts | 180° |
| 2026-05-08 03:49 | 34.83789 | -89.86291 | 3885 ft | 230 kts | 180° |
| 2026-05-08 03:49 | 34.82198 | -89.86270 | 3654 ft | 228 kts | 180° |
| 2026-05-08 03:49 | 34.80619 | -89.86221 | 3433 ft | 226 kts | 178° |
| 2026-05-08 03:49 | 34.79051 | -89.86149 | 3209 ft | 225 kts | 178° |
| 2026-05-08 03:50 | 34.77532 | -89.86436 | 3025 ft | 221 kts | 207° |
| 2026-05-08 03:50 | 34.76426 | -89.87673 | 2999 ft | 218 kts | 242° |
| 2026-05-08 03:50 | 34.76042 | -89.89429 | 3009 ft | 216 kts | 265° |
| 2026-05-08 03:50 | 34.75946 | -89.91260 | 3001 ft | 219 kts | 268° |
| 2026-05-08 03:51 | 34.75974 | -89.93112 | 2978 ft | 220 kts | 286° |
| 2026-05-08 03:51 | 34.76829 | -89.94570 | 2997 ft | 215 kts | 329° |
| 2026-05-08 03:51 | 34.78174 | -89.95360 | 3003 ft | 215 kts | 332° |
| 2026-05-08 03:51 | 34.79448 | -89.96319 | 3000 ft | 216 kts | 325° |
| 2026-05-08 03:52 | 34.80656 | -89.97410 | 2997 ft | 217 kts | 322° |
| 2026-05-08 03:52 | 34.81950 | -89.98321 | 2966 ft | 217 kts | 351° |
| 2026-05-08 03:52 | 34.83442 | -89.98319 | 3005 ft | 215 kts | 1° |
| 2026-05-08 03:52 | 34.84944 | -89.98324 | 3004 ft | 216 kts | 359° |
| 2026-05-08 03:53 | 34.86455 | -89.98352 | 3002 ft | 218 kts | 359° |
| 2026-05-08 03:53 | 34.87966 | -89.98381 | 3019 ft | 215 kts | 359° |
| 2026-05-08 03:53 | 34.89423 | -89.98411 | 2856 ft | 206 kts | 359° |
| 2026-05-08 03:53 | 34.90817 | -89.98441 | 2602 ft | 194 kts | 359° |
| 2026-05-08 03:54 | 34.92128 | -89.98469 | 2362 ft | 182 kts | 359° |
| 2026-05-08 03:54 | 34.93343 | -89.98495 | 2154 ft | 165 kts | 359° |
| 2026-05-08 03:54 | 34.94440 | -89.98519 | 1907 ft | 150 kts | 359° |
| 2026-05-08 03:54 | 34.95454 | -89.98541 | 1721 ft | 143 kts | 360° |
| 2026-05-08 03:55 | 34.96446 | -89.98563 | 1543 ft | 144 kts | 360° |
| 2026-05-08 03:55 | 34.97453 | -89.98584 | 1358 ft | 146 kts | 360° |
| 2026-05-08 03:55 | 34.98466 | -89.98607 | 1160 ft | 146 kts | 359° |
| 2026-05-08 03:55 | 34.99491 | -89.98635 | 963 ft | 147 kts | 359° |
| 2026-05-08 03:56 | 35.00522 | -89.98662 | 768 ft | 149 kts | 359° |
| 2026-05-08 03:56 | 35.01537 | -89.98683 | 620 ft | 145 kts | 359° |
| 2026-05-08 03:56 | 35.02534 | -89.98693 | 372 ft | 142 kts | 359° |
| 2026-05-08 03:56 | 35.03452 | -89.98712 | 314 ft | 108 kts | 358° |
| 2026-05-08 03:57 | 35.04012 | -89.98723 | 299 ft | 45 kts | 359° |
| 2026-05-08 03:57 | 35.04163 | -89.98710 | 298 ft | 17 kts | 32° |
| 2026-05-08 03:57 | 35.04177 | -89.98605 | 300 ft | 10 kts | 127° |
| 2026-05-08 03:57 | 35.04121 | -89.98592 | 300 ft | 8 kts | 178° |
| 2026-05-08 03:58 | 35.04070 | -89.98591 | 299 ft | 7 kts | 179° |
| 2026-05-08 03:58 | 35.04062 | -89.98591 | 299 ft | 0 kts | 179° |
| 2026-05-08 03:59 | 35.04057 | -89.98591 | 299 ft | 4 kts | 179° |
| 2026-05-08 03:59 | 35.03999 | -89.98589 | 301 ft | 11 kts | 180° |
| 2026-05-08 03:59 | 35.03912 | -89.98585 | 302 ft | 14 kts | 165° |
| 2026-05-08 04:00 | 35.03883 | -89.98503 | 304 ft | 9 kts | 88° |
| 2026-05-08 04:00 | 35.03885 | -89.98414 | 306 ft | 11 kts | 91° |
| 2026-05-08 04:00 | 35.03883 | -89.98297 | 306 ft | 16 kts | 90° |
| 2026-05-08 04:00 | 35.03887 | -89.98165 | 306 ft | 17 kts | 92° |
| 2026-05-08 04:01 | 35.03905 | -89.98048 | 309 ft | 11 kts | 38° |
| 2026-05-08 04:01 | 35.03985 | -89.98016 | 310 ft | 10 kts | 359° |
| 2026-05-08 04:01 | 35.04026 | -89.98087 | 309 ft | 11 kts | 297° |
| 2026-05-08 04:01 | 35.04070 | -89.98130 | 309 ft | 6 kts | 17° |
| 2026-05-08 04:02 | 35.04076 | -89.98082 | 310 ft | 6 kts | 107° |
| 2026-05-08 04:02 | 35.04126 | -89.98232 | 308 ft | 0 kts | 327° |